createdAt,value
2022-11-27T00:00:04.235Z,84.40
2022-11-27T00:00:44.990Z,84.67
2022-11-27T00:01:23.106Z,84.77
2022-11-27T00:01:57.800Z,84.52
2022-11-27T00:02:30.003Z,84.50
2022-11-27T00:03:02.394Z,84.45
2022-11-27T00:03:37.414Z,84.52
2022-11-27T00:04:13.706Z,84.70
2022-11-27T00:04:48.441Z,84.92
2022-11-27T00:05:23.122Z,84.92
2022-11-27T00:05:56.863Z,84.77
2022-11-27T00:06:30.069Z,84.81
2022-11-27T00:07:04.761Z,84.67
2022-11-27T00:07:36.940Z,84.73
2022-11-27T00:08:09.079Z,84.60
2022-11-27T00:08:43.898Z,84.89
2022-11-27T00:09:16.811Z,84.96
2022-11-27T00:09:51.507Z,85.20
2022-11-27T00:10:23.885Z,84.77
2022-11-27T00:10:55.982Z,85.13
2022-11-27T00:11:32.414Z,84.63
2022-11-27T00:12:05.082Z,85.15
2022-11-27T00:12:39.794Z,85.13
2022-11-27T00:13:11.857Z,84.79
2022-11-27T00:13:44.115Z,84.81
2022-11-27T00:14:20.066Z,84.42
2022-11-27T00:14:55.412Z,84.51
2022-11-27T00:15:30.426Z,84.50
2022-11-27T00:16:02.604Z,84.75
2022-11-27T00:16:34.806Z,84.80
2022-11-27T00:17:09.493Z,84.33
2022-11-27T00:17:41.749Z,84.74
2022-11-27T00:18:13.841Z,84.72
2022-11-27T00:18:48.955Z,84.84
2022-11-27T00:19:21.041Z,84.61
2022-11-27T00:19:58.273Z,84.35
2022-11-27T00:20:30.345Z,84.77
2022-11-27T00:21:04.147Z,84.75
2022-11-27T00:21:39.692Z,84.28
2022-11-27T00:22:11.875Z,84.35
2022-11-27T00:22:43.974Z,84.35
2022-11-27T00:23:18.692Z,84.39
2022-11-27T00:23:51.281Z,84.34
2022-11-27T00:24:23.348Z,84.39
2022-11-27T00:24:58.066Z,84.51
2022-11-27T00:25:30.210Z,84.71
2022-11-27T00:26:03.265Z,84.77
2022-11-27T00:26:38.593Z,84.77
2022-11-27T00:27:10.817Z,84.75
2022-11-27T00:27:46.291Z,84.95
2022-11-27T00:28:18.435Z,84.54
2022-11-27T00:28:50.883Z,84.63
2022-11-27T00:29:29.138Z,84.26
2022-11-27T00:30:01.237Z,84.44
2022-11-27T00:30:33.348Z,84.71
2022-11-27T00:31:17.800Z,84.95
2022-11-27T00:31:49.935Z,84.79
2022-11-27T00:32:21.982Z,84.66
2022-11-27T00:32:56.683Z,85.05
2022-11-27T00:33:29.039Z,84.71
2022-11-27T00:34:04.806Z,84.67
2022-11-27T00:34:39.979Z,84.74
2022-11-27T00:35:14.949Z,84.61
2022-11-27T00:35:47.085Z,84.72
2022-11-27T00:36:21.743Z,84.43
2022-11-27T00:36:53.903Z,84.61
2022-11-27T00:37:25.949Z,84.88
2022-11-27T00:38:00.729Z,84.55
2022-11-27T00:38:38.525Z,84.94
2022-11-27T00:39:11.005Z,84.65
2022-11-27T00:39:45.667Z,84.84
2022-11-27T00:40:18.005Z,84.76
2022-11-27T00:40:50.215Z,84.54
2022-11-27T00:41:28.174Z,84.13
2022-11-27T00:42:00.294Z,84.14
2022-11-27T00:42:32.384Z,84.56
2022-11-27T00:43:07.154Z,84.54
2022-11-27T00:43:44.355Z,84.45
2022-11-27T00:44:19.975Z,84.67
2022-11-27T00:44:52.221Z,84.74
2022-11-27T00:45:24.329Z,84.49
2022-11-27T00:45:59.067Z,84.23
2022-11-27T00:46:33.212Z,84.24
2022-11-27T00:47:08.174Z,84.07
2022-11-27T00:47:40.290Z,84.15
2022-11-27T00:48:12.756Z,84.17
2022-11-27T00:48:47.820Z,84.46
2022-11-27T00:49:19.889Z,84.21
2022-11-27T00:49:51.998Z,84.25
2022-11-27T00:50:31.876Z,84.44
2022-11-27T00:51:06.466Z,84.53
2022-11-27T00:51:38.577Z,84.20
2022-11-27T00:52:13.235Z,84.15
2022-11-27T00:52:45.421Z,84.21
2022-11-27T00:53:17.722Z,84.05
2022-11-27T00:53:52.742Z,84.09
2022-11-27T00:54:24.825Z,84.22
2022-11-27T00:54:59.520Z,84.50
2022-11-27T00:55:31.626Z,84.40
2022-11-27T00:56:04.601Z,84.16
2022-11-27T00:56:41.318Z,84.00
2022-11-27T00:57:13.392Z,84.34
2022-11-27T00:57:45.471Z,84.24
2022-11-27T00:58:20.221Z,84.12
2022-11-27T00:58:53.095Z,84.60
2022-11-27T00:59:27.844Z,84.13
2022-11-27T00:59:59.950Z,84.34
2022-11-27T01:00:32.231Z,84.41
2022-11-27T01:01:07.280Z,84.11
2022-11-27T01:01:44.307Z,84.50
2022-11-27T01:02:16.580Z,84.36
2022-11-27T01:02:48.752Z,84.52
2022-11-27T01:03:23.516Z,84.32
2022-11-27T01:03:56.278Z,84.47
2022-11-27T01:04:30.959Z,84.47
2022-11-27T01:05:03.037Z,83.73
2022-11-27T01:05:38.797Z,84.07
2022-11-27T01:06:13.489Z,83.70
2022-11-27T01:06:45.774Z,83.88
2022-11-27T01:07:17.982Z,83.74
2022-11-27T01:07:52.775Z,83.94
2022-11-27T01:08:24.944Z,83.90
2022-11-27T01:08:57.601Z,84.07
2022-11-27T01:09:32.265Z,84.11
2022-11-27T01:10:05.261Z,83.92
2022-11-27T01:10:37.322Z,83.58
2022-11-27T01:11:17.386Z,83.86
2022-11-27T01:11:49.540Z,83.96
2022-11-27T01:12:21.720Z,83.97
2022-11-27T01:12:56.430Z,83.76
2022-11-27T01:13:30.581Z,83.76
2022-11-27T01:14:04.676Z,83.88
2022-11-27T01:14:39.610Z,83.88
2022-11-27T01:15:11.982Z,83.39
2022-11-27T01:15:44.319Z,83.90
2022-11-27T01:16:21.761Z,83.67
2022-11-27T01:16:53.906Z,83.92
2022-11-27T01:17:26.032Z,83.72
2022-11-27T01:18:00.704Z,83.26
2022-11-27T01:18:32.917Z,83.01
2022-11-27T01:19:05.423Z,83.34
2022-11-27T01:19:40.566Z,83.45
2022-11-27T01:20:13.305Z,83.27
2022-11-27T01:20:52.725Z,83.36
2022-11-27T01:21:28.589Z,83.16
2022-11-27T01:22:00.684Z,83.34
2022-11-27T01:22:33.978Z,83.65
2022-11-27T01:23:08.752Z,83.58
2022-11-27T01:23:40.945Z,83.64
2022-11-27T01:24:17.322Z,83.47
2022-11-27T01:24:49.462Z,83.51
2022-11-27T01:25:26.643Z,83.40
2022-11-27T01:26:00.548Z,83.60
2022-11-27T01:26:35.334Z,83.30
2022-11-27T01:27:07.417Z,83.42
2022-11-27T01:27:39.502Z,83.45
2022-11-27T01:28:14.161Z,83.71
2022-11-27T01:28:46.714Z,83.60
2022-11-27T01:29:21.424Z,83.29
2022-11-27T01:29:53.486Z,83.76
2022-11-27T01:30:25.700Z,83.91
2022-11-27T01:31:00.721Z,83.72
2022-11-27T01:31:34.533Z,83.52
2022-11-27T01:32:09.325Z,83.68
2022-11-27T01:32:41.446Z,83.79
2022-11-27T01:33:13.543Z,83.66
2022-11-27T01:33:48.812Z,83.47
2022-11-27T01:34:21.033Z,83.83
2022-11-27T01:34:54.507Z,83.64
2022-11-27T01:35:29.382Z,83.44
2022-11-27T01:36:06.893Z,83.30
2022-11-27T01:36:41.681Z,83.20
2022-11-27T01:37:13.810Z,83.56
2022-11-27T01:37:45.997Z,83.16
2022-11-27T01:38:20.722Z,83.22
2022-11-27T01:38:53.037Z,83.54
2022-11-27T01:39:27.698Z,83.77
2022-11-27T01:39:59.758Z,83.69
2022-11-27T01:40:31.954Z,83.93
2022-11-27T01:41:10.309Z,83.61
2022-11-27T01:41:42.605Z,83.77
2022-11-27T01:42:17.357Z,83.67
2022-11-27T01:42:49.512Z,83.86
2022-11-27T01:43:37.271Z,83.78
2022-11-27T01:44:42.220Z,83.66
2022-11-27T01:45:16.324Z,83.50
2022-11-27T01:45:51.020Z,83.90
2022-11-27T01:46:31.614Z,83.60
2022-11-27T01:47:07.336Z,83.80
2022-11-27T01:47:48.573Z,83.71
2022-11-27T01:48:20.855Z,83.59
2022-11-27T01:48:54.517Z,83.84
2022-11-27T01:49:35.699Z,83.50
2022-11-27T01:50:14.377Z,83.97
2022-11-27T01:50:46.481Z,83.79
2022-11-27T01:51:25.585Z,84.08
2022-11-27T01:52:02.221Z,84.20
2022-11-27T01:52:38.271Z,83.67
2022-11-27T01:53:16.583Z,83.65
2022-11-27T01:53:50.081Z,83.62
2022-11-27T01:54:25.135Z,84.03
2022-11-27T01:55:04.869Z,83.45
2022-11-27T01:55:43.418Z,83.98
2022-11-27T01:56:18.612Z,83.75
2022-11-27T01:56:56.399Z,83.67
2022-11-27T01:57:31.306Z,83.68
2022-11-27T01:58:10.475Z,83.82
2022-11-27T01:58:42.946Z,84.05
2022-11-27T01:59:16.682Z,83.97
2022-11-27T01:59:53.411Z,83.99
2022-11-27T02:00:26.243Z,83.58
2022-11-27T02:00:58.945Z,83.89
2022-11-27T02:01:33.876Z,83.54
2022-11-27T02:02:06.281Z,83.92
2022-11-27T02:02:38.459Z,83.41
2022-11-27T02:03:13.829Z,83.83
2022-11-27T02:03:45.985Z,83.58
2022-11-27T02:04:19.410Z,83.73
2022-11-27T02:04:54.361Z,83.40
2022-11-27T02:05:28.823Z,83.33
2022-11-27T02:06:01.075Z,83.46
2022-11-27T02:06:38.457Z,83.24
2022-11-27T02:07:10.756Z,83.06
2022-11-27T02:07:43.139Z,82.82
2022-11-27T02:08:19.618Z,83.14
2022-11-27T02:08:52.132Z,83.23
2022-11-27T02:09:24.403Z,83.33
2022-11-27T02:09:59.241Z,82.91
2022-11-27T02:10:43.082Z,83.45
2022-11-27T02:11:22.960Z,83.02
2022-11-27T02:12:02.298Z,83.33
2022-11-27T02:12:44.745Z,83.09
2022-11-27T02:13:26.062Z,83.05
2022-11-27T02:14:08.670Z,82.77
2022-11-27T02:14:52.478Z,82.75
2022-11-27T02:15:33.304Z,82.79
2022-11-27T02:16:17.619Z,83.10
2022-11-27T02:17:00.765Z,82.83
2022-11-27T02:17:41.482Z,82.88
2022-11-27T02:18:19.123Z,82.96
2022-11-27T02:19:00.577Z,82.77
2022-11-27T02:19:50.758Z,82.90
2022-11-27T02:20:35.079Z,82.77
2022-11-27T02:21:17.096Z,82.66
2022-11-27T02:21:57.842Z,83.15
2022-11-27T02:22:54.505Z,82.58
2022-11-27T02:24:01.716Z,82.29
2022-11-27T02:24:49.366Z,82.51
2022-11-27T02:25:37.381Z,82.38
2022-11-27T02:26:33.141Z,82.29
2022-11-27T02:27:30.648Z,82.46
2022-11-27T02:28:29.360Z,82.84
2022-11-27T02:29:10.687Z,82.90
2022-11-27T02:29:45.554Z,82.78
2022-11-27T02:30:18.070Z,82.85
2022-11-27T02:30:59.594Z,82.66
2022-11-27T02:31:39.373Z,82.73
2022-11-27T02:32:24.089Z,82.40
2022-11-27T02:32:59.798Z,82.33
2022-11-27T02:33:35.252Z,82.34
2022-11-27T02:34:18.748Z,82.54
2022-11-27T02:34:58.077Z,82.71
2022-11-27T02:35:34.625Z,82.82
2022-11-27T02:36:12.965Z,82.70
2022-11-27T02:36:50.354Z,82.24
2022-11-27T02:37:32.691Z,82.55
2022-11-27T02:38:12.330Z,82.37
2022-11-27T02:38:49.538Z,82.18
2022-11-27T02:39:27.794Z,82.15
2022-11-27T02:40:08.201Z,82.16
2022-11-27T02:40:42.343Z,82.54
2022-11-27T02:41:21.118Z,82.62
2022-11-27T02:42:00.725Z,82.35
2022-11-27T02:42:40.453Z,82.66
2022-11-27T02:43:16.001Z,82.50
2022-11-27T02:43:49.834Z,82.42
2022-11-27T02:44:32.189Z,82.50
2022-11-27T02:45:08.928Z,82.34
2022-11-27T02:45:44.387Z,82.59
2022-11-27T02:46:21.374Z,82.25
2022-11-27T02:46:54.377Z,82.26
2022-11-27T02:47:28.076Z,82.30
2022-11-27T02:48:02.897Z,82.37
2022-11-27T02:48:38.355Z,82.46
2022-11-27T02:49:17.046Z,82.27
2022-11-27T02:49:57.117Z,81.91
2022-11-27T02:50:32.314Z,82.24
2022-11-27T02:51:07.226Z,82.14
2022-11-27T02:51:45.208Z,82.13
2022-11-27T02:52:20.208Z,82.03
2022-11-27T02:52:57.942Z,81.89
2022-11-27T02:53:37.952Z,82.38
2022-11-27T02:54:14.830Z,82.26
2022-11-27T02:54:50.283Z,82.19
2022-11-27T02:55:29.083Z,81.86
2022-11-27T02:56:05.450Z,81.88
2022-11-27T02:56:39.415Z,81.88
2022-11-27T02:57:16.822Z,82.08
2022-11-27T02:57:51.292Z,82.13
2022-11-27T02:58:27.018Z,81.85
2022-11-27T02:59:04.721Z,81.87
2022-11-27T02:59:41.996Z,82.10
2022-11-27T03:00:15.358Z,82.09
2022-11-27T03:00:50.794Z,82.23
2022-11-27T03:01:24.695Z,81.91
2022-11-27T03:02:04.111Z,81.80
2022-11-27T03:02:42.037Z,81.68
2022-11-27T03:03:21.879Z,81.94
2022-11-27T03:03:58.071Z,81.71
2022-11-27T03:04:35.256Z,82.01
2022-11-27T03:05:15.858Z,82.12
2022-11-27T03:05:51.684Z,81.97
2022-11-27T03:06:28.351Z,81.88
2022-11-27T03:07:08.401Z,81.88
2022-11-27T03:07:44.553Z,81.96
2022-11-27T03:08:25.986Z,81.97
2022-11-27T03:09:01.785Z,81.57
2022-11-27T03:09:36.196Z,81.66
2022-11-27T03:10:19.352Z,81.93
2022-11-27T03:11:01.730Z,81.22
2022-11-27T03:11:34.473Z,81.77
2022-11-27T03:12:11.652Z,81.78
2022-11-27T03:12:43.768Z,81.13
2022-11-27T03:13:16.200Z,81.25
2022-11-27T03:13:56.206Z,81.19
2022-11-27T03:14:28.707Z,81.38
2022-11-27T03:15:06.899Z,81.24
2022-11-27T03:15:45.576Z,81.36
2022-11-27T03:16:27.301Z,81.27
2022-11-27T03:17:09.294Z,81.18
2022-11-27T03:17:53.207Z,81.13
2022-11-27T03:18:35.694Z,81.29
2022-11-27T03:19:19.347Z,81.65
2022-11-27T03:19:56.572Z,81.29
2022-11-27T03:20:33.053Z,81.14
2022-11-27T03:21:15.649Z,81.16
2022-11-27T03:21:52.262Z,81.21
2022-11-27T03:22:26.883Z,81.21
2022-11-27T03:23:01.994Z,81.20
2022-11-27T03:23:34.123Z,81.60
2022-11-27T03:24:07.862Z,81.14
2022-11-27T03:24:42.817Z,81.22
2022-11-27T03:25:16.383Z,81.38
2022-11-27T03:25:48.575Z,81.36
2022-11-27T03:26:23.365Z,80.67
2022-11-27T03:26:57.637Z,81.07
2022-11-27T03:27:35.661Z,81.18
2022-11-27T03:28:11.074Z,81.15
2022-11-27T03:28:48.319Z,80.85
2022-11-27T03:29:23.628Z,81.32
2022-11-27T03:29:58.541Z,81.22
2022-11-27T03:30:36.071Z,80.90
2022-11-27T03:31:08.540Z,81.18
2022-11-27T03:31:40.942Z,80.97
2022-11-27T03:32:15.797Z,80.87
2022-11-27T03:32:48.052Z,81.02
2022-11-27T03:33:20.166Z,80.86
2022-11-27T03:33:55.905Z,80.92
2022-11-27T03:34:29.026Z,80.73
2022-11-27T03:35:02.479Z,81.02
2022-11-27T03:35:37.153Z,80.65
2022-11-27T03:36:14.277Z,81.10
2022-11-27T03:36:46.671Z,80.79
2022-11-27T03:37:21.476Z,81.12
2022-11-27T03:37:54.270Z,80.71
2022-11-27T03:38:28.953Z,80.43
2022-11-27T03:39:01.110Z,80.88
2022-11-27T03:39:34.378Z,80.91
2022-11-27T03:40:11.124Z,80.73
2022-11-27T03:40:51.679Z,81.09
2022-11-27T03:41:32.479Z,80.78
2022-11-27T03:42:19.328Z,81.09
2022-11-27T03:43:03.884Z,80.99
2022-11-27T03:43:43.093Z,80.80
2022-11-27T03:44:28.914Z,81.27
2022-11-27T03:45:08.073Z,81.40
2022-11-27T03:45:52.518Z,81.35
2022-11-27T03:46:36.004Z,81.33
2022-11-27T03:47:16.362Z,81.48
2022-11-27T03:47:55.276Z,81.54
2022-11-27T03:48:39.006Z,81.46
2022-11-27T03:49:19.917Z,81.92
2022-11-27T03:50:09.285Z,81.79
2022-11-27T03:50:54.947Z,81.57
2022-11-27T03:51:36.688Z,81.52
2022-11-27T03:52:19.882Z,81.95
2022-11-27T03:53:06.041Z,81.69
2022-11-27T03:53:50.499Z,81.37
2022-11-27T03:54:36.971Z,81.93
2022-11-27T03:55:15.961Z,81.60
2022-11-27T03:55:58.001Z,82.00
2022-11-27T03:56:38.225Z,81.72
2022-11-27T03:57:22.074Z,82.06
2022-11-27T03:57:59.365Z,81.99
2022-11-27T03:58:35.848Z,82.05
2022-11-27T03:59:15.459Z,82.00
2022-11-27T03:59:52.912Z,82.24
2022-11-27T04:00:25.377Z,82.55
2022-11-27T04:01:04.442Z,82.34
2022-11-27T04:01:37.297Z,82.56
2022-11-27T04:02:13.975Z,82.32
2022-11-27T04:02:50.518Z,82.39
2022-11-27T04:03:25.017Z,82.12
2022-11-27T04:03:57.264Z,82.02
2022-11-27T04:04:31.952Z,82.04
2022-11-27T04:05:04.378Z,82.13
2022-11-27T04:05:36.466Z,82.04
2022-11-27T04:06:11.860Z,82.22
2022-11-27T04:06:44.137Z,82.09
2022-11-27T04:07:17.704Z,82.38
2022-11-27T04:07:52.619Z,82.10
2022-11-27T04:08:25.480Z,82.20
2022-11-27T04:08:57.745Z,82.37
2022-11-27T04:09:32.432Z,82.31
2022-11-27T04:10:06.085Z,82.37
2022-11-27T04:10:38.170Z,82.28
2022-11-27T04:11:12.816Z,82.45
2022-11-27T04:11:44.916Z,82.81
2022-11-27T04:12:17.034Z,82.35
2022-11-27T04:12:51.760Z,82.28
2022-11-27T04:13:23.874Z,82.19
2022-11-27T04:13:58.572Z,82.41
2022-11-27T04:14:30.657Z,82.28
2022-11-27T04:15:03.270Z,82.19
2022-11-27T04:15:37.995Z,82.37
2022-11-27T04:16:12.766Z,81.99
2022-11-27T04:16:44.990Z,81.92
2022-11-27T04:17:19.825Z,82.02
2022-11-27T04:17:52.024Z,82.13
2022-11-27T04:18:24.211Z,81.98
2022-11-27T04:18:58.898Z,82.21
2022-11-27T04:19:30.998Z,82.21
2022-11-27T04:20:03.689Z,82.32
2022-11-27T04:20:38.551Z,82.31
2022-11-27T04:21:12.125Z,82.07
2022-11-27T04:21:44.194Z,82.16
2022-11-27T04:22:18.929Z,82.06
2022-11-27T04:22:51.116Z,82.30
2022-11-27T04:23:23.165Z,82.56
2022-11-27T04:23:57.897Z,82.17
2022-11-27T04:24:30.036Z,82.56
2022-11-27T04:25:02.185Z,82.31
2022-11-27T04:25:36.860Z,82.14
2022-11-27T04:26:09.244Z,82.43
2022-11-27T04:26:41.373Z,81.93
2022-11-27T04:27:16.029Z,82.15
2022-11-27T04:27:48.102Z,82.32
2022-11-27T04:28:20.306Z,82.04
2022-11-27T04:28:54.955Z,82.22
2022-11-27T04:29:27.020Z,82.14
2022-11-27T04:29:59.265Z,82.21
2022-11-27T04:30:34.038Z,82.28
2022-11-27T04:31:06.626Z,82.59
2022-11-27T04:31:41.458Z,82.74
2022-11-27T04:32:17.565Z,82.46
2022-11-27T04:32:49.658Z,82.63
2022-11-27T04:33:25.102Z,82.16
2022-11-27T04:33:57.178Z,82.48
2022-11-27T04:34:29.313Z,82.59
2022-11-27T04:35:05.057Z,82.61
2022-11-27T04:35:37.212Z,82.77
2022-11-27T04:36:09.388Z,82.47
2022-11-27T04:36:44.131Z,82.78
2022-11-27T04:37:16.286Z,82.68
2022-11-27T04:37:48.365Z,83.11
2022-11-27T04:38:24.221Z,82.84
2022-11-27T04:38:56.314Z,82.95
2022-11-27T04:39:31.086Z,83.11
2022-11-27T04:40:04.171Z,82.74
2022-11-27T04:40:36.216Z,82.97
2022-11-27T04:41:10.907Z,82.91
2022-11-27T04:41:42.984Z,83.32
2022-11-27T04:42:15.134Z,83.15
2022-11-27T04:42:50.792Z,83.02
2022-11-27T04:43:22.999Z,82.89
2022-11-27T04:43:55.141Z,83.36
2022-11-27T04:44:29.813Z,83.14
2022-11-27T04:45:01.875Z,82.98
2022-11-27T04:45:33.977Z,82.70
2022-11-27T04:46:08.695Z,82.81
2022-11-27T04:46:43.723Z,82.90
2022-11-27T04:47:16.001Z,83.16
2022-11-27T04:47:50.873Z,83.04
2022-11-27T04:48:22.976Z,83.11
2022-11-27T04:48:55.161Z,83.13
2022-11-27T04:49:29.859Z,83.11
2022-11-27T04:50:02.023Z,83.32
2022-11-27T04:50:34.104Z,83.46
2022-11-27T04:51:09.074Z,83.33
2022-11-27T04:51:41.188Z,83.36
2022-11-27T04:52:13.296Z,83.49
2022-11-27T04:52:47.959Z,83.41
2022-11-27T04:53:20.029Z,83.62
2022-11-27T04:53:52.093Z,83.97
2022-11-27T04:54:26.856Z,84.12
2022-11-27T04:55:00.484Z,84.18
2022-11-27T04:55:32.790Z,84.00
2022-11-27T04:56:07.950Z,84.43
2022-11-27T04:56:40.102Z,84.25
2022-11-27T04:57:12.146Z,84.15
2022-11-27T04:57:46.882Z,84.17
2022-11-27T04:58:18.959Z,84.21
2022-11-27T04:58:51.094Z,84.33
2022-11-27T04:59:25.745Z,84.65
2022-11-27T04:59:57.853Z,84.29
2022-11-27T05:00:30.000Z,84.52
2022-11-27T05:01:04.750Z,84.64
2022-11-27T05:01:37.167Z,84.82
2022-11-27T05:02:11.807Z,84.62
2022-11-27T05:02:46.594Z,84.58
2022-11-27T05:03:19.095Z,84.74
2022-11-27T05:03:51.193Z,85.01
2022-11-27T05:04:26.273Z,84.76
2022-11-27T05:04:58.396Z,84.87
2022-11-27T05:05:30.699Z,84.91
2022-11-27T05:06:05.854Z,84.79
2022-11-27T05:06:37.942Z,84.82
2022-11-27T05:07:10.062Z,84.77
2022-11-27T05:07:45.000Z,84.83
2022-11-27T05:08:17.269Z,84.95
2022-11-27T05:08:49.871Z,85.19
2022-11-27T05:09:24.587Z,85.01
2022-11-27T05:09:56.724Z,85.23
2022-11-27T05:10:31.392Z,85.48
2022-11-27T05:11:05.972Z,85.21
2022-11-27T05:11:38.184Z,84.92
2022-11-27T05:12:12.872Z,85.19
2022-11-27T05:12:44.962Z,85.36
2022-11-27T05:13:17.038Z,85.18
2022-11-27T05:14:11.792Z,85.19
2022-11-27T05:14:43.966Z,85.51
2022-11-27T05:15:18.973Z,85.58
2022-11-27T05:15:51.225Z,85.24
2022-11-27T05:16:23.456Z,85.17
2022-11-27T05:17:00.143Z,85.37
2022-11-27T05:17:34.810Z,85.61
2022-11-27T05:18:07.045Z,85.50
2022-11-27T05:18:41.697Z,85.79
2022-11-27T05:19:14.571Z,85.87
2022-11-27T05:19:49.234Z,85.70
2022-11-27T05:20:21.291Z,86.12
2022-11-27T05:20:58.082Z,85.86
2022-11-27T05:21:31.051Z,85.76
2022-11-27T05:22:05.972Z,86.25
2022-11-27T05:22:38.136Z,86.06
2022-11-27T05:23:10.203Z,86.14
2022-11-27T05:23:44.868Z,86.10
2022-11-27T05:24:18.962Z,86.04
2022-11-27T05:24:51.189Z,86.00
2022-11-27T05:25:25.877Z,86.32
2022-11-27T05:25:58.258Z,86.27
2022-11-27T05:26:30.341Z,86.09
2022-11-27T05:27:05.190Z,85.98
2022-11-27T05:27:37.307Z,86.15
2022-11-27T05:28:09.455Z,86.36
2022-11-27T05:28:44.174Z,86.43
2022-11-27T05:29:17.015Z,86.35
2022-11-27T05:29:49.144Z,86.16
2022-11-27T05:30:23.817Z,86.26
2022-11-27T05:30:56.015Z,86.56
2022-11-27T05:31:28.223Z,86.48
2022-11-27T05:32:02.941Z,86.58
2022-11-27T05:32:38.181Z,86.03
2022-11-27T05:33:10.339Z,86.05
2022-11-27T05:33:45.051Z,86.24
2022-11-27T05:34:17.188Z,85.95
2022-11-27T05:34:52.104Z,85.88
2022-11-27T05:35:24.195Z,86.37
2022-11-27T05:35:56.294Z,86.26
2022-11-27T05:36:31.691Z,86.05
2022-11-27T05:37:03.816Z,86.39
2022-11-27T05:37:35.909Z,86.17
2022-11-27T05:38:10.558Z,86.17
2022-11-27T05:38:42.643Z,86.10
2022-11-27T05:39:15.338Z,86.33
2022-11-27T05:39:50.037Z,86.07
2022-11-27T05:40:22.269Z,86.05
2022-11-27T05:40:57.292Z,86.30
2022-11-27T05:41:29.615Z,86.24
2022-11-27T05:42:01.739Z,86.26
2022-11-27T05:42:36.469Z,85.92
2022-11-27T05:43:08.663Z,85.99
2022-11-27T05:43:41.983Z,85.89
2022-11-27T05:44:18.234Z,86.20
2022-11-27T05:44:55.286Z,86.26
2022-11-27T05:45:30.101Z,85.82
2022-11-27T05:46:08.183Z,86.08
2022-11-27T05:46:40.524Z,86.18
2022-11-27T05:47:15.321Z,85.94
2022-11-27T05:47:49.985Z,86.21
2022-11-27T05:48:22.116Z,86.28
2022-11-27T05:48:56.996Z,86.36
2022-11-27T05:49:29.108Z,86.09
2022-11-27T05:50:01.184Z,85.95
2022-11-27T05:50:35.857Z,85.74
2022-11-27T05:51:08.477Z,85.81
2022-11-27T05:51:43.276Z,86.14
2022-11-27T05:52:21.204Z,85.97
2022-11-27T05:52:53.323Z,85.42
2022-11-27T05:53:25.534Z,85.42
2022-11-27T05:54:00.263Z,85.67
2022-11-27T05:54:32.336Z,85.45
2022-11-27T05:55:06.009Z,85.41
2022-11-27T05:55:40.674Z,85.41
2022-11-27T05:56:15.212Z,85.50
2022-11-27T05:56:47.376Z,85.81
2022-11-27T05:57:22.136Z,86.11
2022-11-27T05:57:54.204Z,85.79
2022-11-27T05:58:26.275Z,86.22
2022-11-27T05:59:01.025Z,86.20
2022-11-27T05:59:33.107Z,85.96
2022-11-27T06:00:10.233Z,86.05
2022-11-27T06:00:42.355Z,86.29
2022-11-27T06:01:16.577Z,86.12
2022-11-27T06:01:52.267Z,86.24
2022-11-27T06:02:29.177Z,85.88
2022-11-27T06:03:04.337Z,86.16
2022-11-27T06:03:39.291Z,86.02
2022-11-27T06:04:11.504Z,86.18
2022-11-27T06:04:43.589Z,86.00
2022-11-27T06:05:18.742Z,86.20
2022-11-27T06:05:51.867Z,86.04
2022-11-27T06:06:24.390Z,86.11
2022-11-27T06:06:59.320Z,86.44
2022-11-27T06:07:31.916Z,85.90
2022-11-27T06:08:04.271Z,85.88
2022-11-27T06:08:39.920Z,85.84
2022-11-27T06:09:13.382Z,85.98
2022-11-27T06:09:46.165Z,86.01
2022-11-27T06:10:20.856Z,85.84
2022-11-27T06:10:53.048Z,85.76
2022-11-27T06:11:25.165Z,85.93
2022-11-27T06:12:00.441Z,85.69
2022-11-27T06:12:33.105Z,85.78
2022-11-27T06:13:05.177Z,86.07
2022-11-27T06:13:40.656Z,85.52
2022-11-27T06:14:12.738Z,85.64
2022-11-27T06:14:44.806Z,85.97
2022-11-27T06:15:19.936Z,86.01
2022-11-27T06:15:52.013Z,85.66
2022-11-27T06:16:24.735Z,85.64
2022-11-27T06:16:59.547Z,85.74
2022-11-27T06:17:32.020Z,85.50
2022-11-27T06:18:07.437Z,85.09
2022-11-27T06:18:42.255Z,85.11
2022-11-27T06:19:14.393Z,85.21
2022-11-27T06:19:46.512Z,85.16
2022-11-27T06:20:23.883Z,84.85
2022-11-27T06:20:57.534Z,85.13
2022-11-27T06:21:29.606Z,85.22
2022-11-27T06:22:04.312Z,84.91
2022-11-27T06:22:37.411Z,84.92
2022-11-27T06:23:12.076Z,84.68
2022-11-27T06:23:47.009Z,85.04
2022-11-27T06:24:19.348Z,84.79
2022-11-27T06:24:51.414Z,85.09
2022-11-27T06:25:26.720Z,84.57
2022-11-27T06:25:58.789Z,84.83
2022-11-27T06:26:32.546Z,84.98
2022-11-27T06:27:07.260Z,84.98
2022-11-27T06:27:39.430Z,84.65
2022-11-27T06:28:11.566Z,84.58
2022-11-27T06:28:46.836Z,84.97
2022-11-27T06:29:18.914Z,84.97
2022-11-27T06:29:50.996Z,84.66
2022-11-27T06:30:25.638Z,84.54
2022-11-27T06:30:57.720Z,84.76
2022-11-27T06:31:32.983Z,84.29
2022-11-27T06:32:08.705Z,83.95
2022-11-27T06:32:40.921Z,84.03
2022-11-27T06:33:15.746Z,83.81
2022-11-27T06:33:51.525Z,83.70
2022-11-27T06:34:23.637Z,83.81
2022-11-27T06:34:55.706Z,83.89
2022-11-27T06:35:30.369Z,84.00
2022-11-27T06:36:03.007Z,84.02
2022-11-27T06:36:37.834Z,83.81
2022-11-27T06:37:13.546Z,83.89
2022-11-27T06:37:45.787Z,84.09
2022-11-27T06:38:17.960Z,83.81
2022-11-27T06:38:52.928Z,84.58
2022-11-27T06:39:25.023Z,84.29
2022-11-27T06:39:57.211Z,84.10
2022-11-27T06:40:32.150Z,84.38
2022-11-27T06:41:05.705Z,84.13
2022-11-27T06:41:38.281Z,84.29
2022-11-27T06:42:13.011Z,84.35
2022-11-27T06:42:45.107Z,84.29
2022-11-27T06:43:19.838Z,84.36
2022-11-27T06:43:51.977Z,84.26
2022-11-27T06:44:24.217Z,84.01
2022-11-27T06:44:58.904Z,84.44
2022-11-27T06:45:31.054Z,84.44
2022-11-27T06:46:04.340Z,83.70
2022-11-27T06:46:39.457Z,84.07
2022-11-27T06:47:11.599Z,84.05
2022-11-27T06:47:43.693Z,83.94
2022-11-27T06:48:20.978Z,83.99
2022-11-27T06:48:54.628Z,83.91
2022-11-27T06:49:26.751Z,83.92
2022-11-27T06:50:01.461Z,84.02
2022-11-27T06:50:33.536Z,84.21
2022-11-27T06:51:07.775Z,84.29
2022-11-27T06:51:42.571Z,84.18
2022-11-27T06:52:14.653Z,84.52
2022-11-27T06:52:46.709Z,84.33
2022-11-27T06:53:19.405Z,83.94
2022-11-27T06:53:55.339Z,83.74
2022-11-27T06:54:29.050Z,84.02
2022-11-27T06:55:01.162Z,84.04
2022-11-27T06:55:35.839Z,83.92
2022-11-27T06:56:10.223Z,84.49
2022-11-27T06:56:42.328Z,84.60
2022-11-27T06:57:17.292Z,84.28
2022-11-27T06:57:50.748Z,84.75
2022-11-27T06:58:26.479Z,84.86
2022-11-27T06:59:04.789Z,84.54
2022-11-27T06:59:36.898Z,84.79
2022-11-27T07:00:10.146Z,84.57
2022-11-27T07:00:44.845Z,84.78
2022-11-27T07:01:19.594Z,85.00
2022-11-27T07:01:54.379Z,84.83
2022-11-27T07:02:26.809Z,84.91
2022-11-27T07:02:58.928Z,84.90
2022-11-27T07:03:36.685Z,85.03
2022-11-27T07:04:10.925Z,85.03
2022-11-27T07:04:45.974Z,84.69
2022-11-27T07:05:18.034Z,84.68
2022-11-27T07:05:50.145Z,84.88
2022-11-27T07:06:28.133Z,84.73
2022-11-27T07:07:00.308Z,85.10
2022-11-27T07:07:32.459Z,84.94
2022-11-27T07:08:07.853Z,84.71
2022-11-27T07:08:40.001Z,84.96
2022-11-27T07:09:12.179Z,84.73
2022-11-27T07:09:46.949Z,84.72
2022-11-27T07:10:19.055Z,85.07
2022-11-27T07:10:51.165Z,85.20
2022-11-27T07:11:28.092Z,85.17
2022-11-27T07:12:00.172Z,84.89
2022-11-27T07:12:32.307Z,85.24
2022-11-27T07:13:07.021Z,84.77
2022-11-27T07:13:39.140Z,85.22
2022-11-27T07:14:13.863Z,85.30
2022-11-27T07:14:46.008Z,85.57
2022-11-27T07:15:18.224Z,86.08
2022-11-27T07:15:52.891Z,85.80
2022-11-27T07:16:26.412Z,86.21
2022-11-27T07:16:58.617Z,85.94
2022-11-27T07:17:33.305Z,85.84
2022-11-27T07:18:05.450Z,86.32
2022-11-27T07:18:42.972Z,86.29
2022-11-27T07:19:17.685Z,86.38
2022-11-27T07:19:49.803Z,86.15
2022-11-27T07:20:21.942Z,86.10
2022-11-27T07:20:57.012Z,86.27
2022-11-27T07:21:29.639Z,86.38
2022-11-27T07:22:01.757Z,86.87
2022-11-27T07:22:36.461Z,86.90
2022-11-27T07:23:08.545Z,86.48
2022-11-27T07:23:40.714Z,86.70
2022-11-27T07:24:15.377Z,86.85
2022-11-27T07:24:47.476Z,86.76
2022-11-27T07:25:19.637Z,86.83
2022-11-27T07:25:54.320Z,86.82
2022-11-27T07:26:28.669Z,87.04
2022-11-27T07:27:00.730Z,86.69
2022-11-27T07:27:35.429Z,86.73
2022-11-27T07:28:07.482Z,86.71
2022-11-27T07:28:39.671Z,86.76
2022-11-27T07:29:14.438Z,86.53
2022-11-27T07:29:46.564Z,87.19
2022-11-27T07:30:18.860Z,87.32